Time;durP1;ratioP1;P1;durP2;ratioP2;P2;SDS_P1;SDS_P2;PMS_P1;PMS_P2;Temp;Humidity;BMP_temperature;BMP_pressure;BME280_temperature;BME280_humidity;BME280_pressure;Samples;Min_cycle;Max_cycle;Signal;HPM_P1;HPM_P2
2021/08/30 00:02:02;;;;;;;1.92;1.25;;;;;;;16.93;53.28;100009.31;5298996;27;20064;-81
2021/08/30 00:04:29;;;;;;;1.75;0.98;;;;;;;16.78;53.60;100002.81;5298646;27;20451;-82
2021/08/30 00:06:56;;;;;;;4.60;1.60;;;;;;;16.63;53.87;100009.53;5298952;27;20131;-82
2021/08/30 00:09:23;;;;;;;1.87;1.10;;;;;;;16.77;53.38;100011.69;5317115;27;20552;-82
2021/08/30 00:11:50;;;;;;;5.87;1.48;;;;;;;16.79;53.34;100009.84;5298832;27;20474;-82
2021/08/30 00:14:18;;;;;;;2.28;1.67;;;;;;;16.64;53.49;100018.34;5298752;27;20406;-82
2021/08/30 00:16:45;;;;;;;4.05;1.80;;;;;;;16.73;52.96;100016.19;5298584;27;20086;-82
2021/08/30 00:19:12;;;;;;;4.28;2.10;;;;;;;16.82;53.48;100014.16;5298629;27;20064;-82
2021/08/30 00:21:39;;;;;;;3.35;1.85;;;;;;;16.35;55.67;100014.94;5299960;27;20104;-81
2021/08/30 00:24:07;;;;;;;4.65;1.58;;;;;;;16.25;56.42;100018.84;5299889;27;20076;-82
2021/08/30 00:26:33;;;;;;;3.42;1.62;;;;;;;16.29;56.23;100015.16;5319783;27;20060;-82
2021/08/30 00:29:01;;;;;;;2.70;1.58;;;;;;;16.27;56.29;100014.38;5299784;27;20075;-81
2021/08/30 00:31:28;;;;;;;6.43;1.90;;;;;;;16.18;56.38;100018.22;5299838;27;20083;-82
2021/08/30 00:36:25;;;;;;;2.00;1.55;;;;;;;16.01;56.88;100021.44;5278083;27;20104;-81
2021/08/30 00:38:56;;;;;;;4.72;2.20;;;;;;;15.73;57.77;100020.63;5257644;27;20101;-81
2021/08/30 00:41:27;;;;;;;7.50;3.90;;;;;;;15.97;57.19;100018.94;5275719;27;20182;-81
2021/08/30 00:43:55;;;;;;;2.22;1.50;;;;;;;16.15;56.64;100025.38;5258143;27;20072;-81
2021/08/30 00:46:22;;;;;;;3.22;1.90;;;;;;;16.12;56.75;100026.38;5275800;27;20050;-81
2021/08/30 00:48:51;;;;;;;3.90;1.85;;;;;;;15.87;57.48;100029.84;5277043;27;20053;-82
2021/08/30 00:51:20;;;;;;;3.55;1.58;;;;;;;15.88;57.67;100026.28;5257402;27;20084;-82
2021/08/30 00:53:49;;;;;;;2.67;1.80;;;;;;;15.72;57.92;100034.78;5258164;27;20795;-81
2021/08/30 00:56:18;;;;;;;4.45;2.00;;;;;;;15.62;58.47;100031.56;5277140;27;20110;-81
2021/08/30 00:58:46;;;;;;;4.85;1.85;;;;;;;15.47;58.93;100032.91;5277411;27;20645;-81
2021/08/30 01:01:14;;;;;;;3.60;1.90;;;;;;;15.65;58.43;100034.97;5276012;27;20566;-81
2021/08/30 01:03:42;;;;;;;1.83;1.25;;;;;;;15.50;58.77;100032.81;5277156;27;20127;-81
2021/08/30 01:06:19;;;;;;;4.22;2.10;;;;;;;15.41;58.93;100038.38;5275673;27;20418;-81
2021/08/30 01:08:59;;;;;;;2.47;1.67;;;;;;;15.42;58.52;100042.78;5277324;27;20104;-81
2021/08/30 01:11:30;;;;;;;3.00;1.70;;;;;;;15.58;58.22;100038.69;5275841;27;20403;-81
2021/08/30 01:14:02;;;;;;;3.03;1.67;;;;;;;15.60;58.16;100039.53;5277219;27;20047;-81
2021/08/30 01:16:31;;;;;;;2.42;1.60;;;;;;;15.44;58.39;100035.62;5275421;27;20057;-81
2021/08/30 01:18:59;;;;;;;2.17;1.50;;;;;;;15.56;57.88;100035.25;5275584;27;20113;-81
2021/08/30 01:21:38;;;;;;;2.95;1.55;;;;;;;15.74;57.33;100040.91;5275153;27;20061;-82
2021/08/30 01:24:10;;;;;;;2.40;1.67;;;;;;;15.72;57.02;100033.00;5275448;27;20340;-81
2021/08/30 01:26:45;;;;;;;6.37;1.48;;;;;;;15.77;56.80;100043.47;5275466;27;20049;-82
2021/08/30 01:29:17;;;;;;;2.62;1.83;;;;;;;15.81;56.71;100035.34;5275489;27;20109;-83
2021/08/30 01:31:54;;;;;;;2.08;1.62;;;;;;;15.73;57.10;100042.66;5274761;27;20081;-82
2021/08/30 01:34:24;;;;;;;1.95;1.30;;;;;;;15.86;56.79;100045.81;5276454;27;20061;-81
2021/08/30 01:36:52;;;;;;;5.20;1.60;;;;;;;16.00;56.35;100040.91;5274546;27;20124;-81
2021/08/30 01:39:20;;;;;;;4.82;2.10;;;;;;;16.18;55.50;100039.41;5257182;27;20061;-81
2021/08/30 01:41:48;;;;;;;3.80;2.20;;;;;;;16.10;56.12;100047.63;5275322;27;20069;-81
2021/08/30 01:44:17;;;;;;;4.53;2.28;;;;;;;16.10;56.03;100047.63;5275365;27;20083;-81
2021/08/30 01:46:45;;;;;;;3.92;1.85;;;;;;;15.64;57.59;100045.59;5275096;27;20114;-81
2021/08/30 01:49:13;;;;;;;2.28;1.52;;;;;;;15.58;57.88;100051.09;5275174;27;20061;-82
2021/08/30 01:51:40;;;;;;;3.28;1.85;;;;;;;15.39;58.36;100042.88;5274906;27;20123;-81
2021/08/30 01:54:09;;;;;;;3.10;1.80;;;;;;;15.37;58.49;100045.53;5275069;27;20675;-81
2021/08/30 01:56:39;;;;;;;4.18;1.48;;;;;;;15.44;58.32;100047.09;5274949;27;20707;-82
2021/08/30 02:01:53;;;;;;;4.37;1.55;;;;;;;15.56;57.85;100035.25;5276534;27;20128;-81
2021/08/30 02:04:20;;;;;;;3.78;1.73;;;;;;;15.61;57.72;100043.03;5257130;27;20087;-81
2021/08/30 02:06:48;;;;;;;3.08;1.62;;;;;;;15.58;57.77;100032.53;5275111;27;20482;-82
2021/08/30 02:09:16;;;;;;;2.37;1.40;;;;;;;15.44;57.86;100038.28;5257182;27;20336;-81
2021/08/30 02:11:43;;;;;;;4.07;1.73;;;;;;;15.53;57.22;100031.81;5274898;27;20079;-81
2021/08/30 02:14:13;;;;;;;4.10;1.73;;;;;;;15.58;56.72;100032.53;5257121;27;20062;-81
2021/08/30 02:16:40;;;;;;;5.78;2.10;;;;;;;15.39;57.60;100037.56;5275794;27;20062;-86
2021/08/30 02:20:08;;;;;;;1.67;1.40;;;;;;;15.40;57.54;100034.00;5268522;27;20066;-87
2021/08/30 02:22:41;;;;;;;3.15;1.70;;;;;;;15.42;57.42;100042.78;5186842;27;20704;-82
2021/08/30 02:25:14;;;;;;;5.53;2.03;;;;;;;15.42;57.19;100037.47;5208847;27;20349;-82
2021/08/30 02:27:40;;;;;;;8.55;2.25;;;;;;;15.43;57.13;100028.59;5256844;27;20097;-82
2021/08/30 02:30:25;;;;;;;5.62;2.08;;;;;;;15.69;55.69;100035.75;5274982;27;20070;-82
2021/08/30 02:32:55;;;;;;;3.83;1.67;;;;;;;15.55;56.41;100028.22;5276474;27;20084;-83
2021/08/30 02:35:26;;;;;;;6.68;2.05;;;;;;;15.47;56.65;100024.97;5286643;27;20163;-82
2021/08/30 02:37:54;;;;;;;4.72;2.50;;;;;;;15.36;57.16;100027.09;5296141;27;20052;-82
2021/08/30 02:40:27;;;;;;;3.92;2.10;;;;;;;15.54;56.59;100023.84;5296298;27;20099;-83
2021/08/30 02:42:57;;;;;;;3.35;1.80;;;;;;;15.03;57.95;100031.59;5296467;27;20387;-82
2021/08/30 02:45:24;;;;;;;;;;;;;;;15.30;57.29;100028.13;5297720;27;20073;-83
2021/08/30 02:47:53;;;;;;;4.22;2.08;;;;;;;15.32;57.28;100028.06;5297591;27;19968;-83
2021/08/30 02:50:21;;;;;;;5.00;1.80;;;;;;;15.13;57.89;100031.28;5296573;27;20108;-82
2021/08/30 02:52:49;;;;;;;8.77;2.42;;;;;;;14.95;58.47;100039.78;5297040;27;20081;-82
2021/08/30 02:55:16;;;;;;;6.18;2.30;;;;;;;14.87;58.44;100034.72;5296724;27;20603;-82
2021/08/30 02:57:49;;;;;;;6.18;2.28;;;;;;;15.02;58.02;100033.37;5296552;27;20131;-83
2021/08/30 03:00:17;;;;;;;6.03;1.80;;;;;;;14.84;58.43;100029.50;5297620;27;20459;-82
2021/08/30 03:02:48;;;;;;;2.47;1.62;;;;;;;14.84;58.11;100029.50;5295808;27;20403;-82
2021/08/30 03:05:16;;;;;;;2.72;1.67;;;;;;;14.63;57.70;100036.28;5296332;27;20112;-82
2021/08/30 03:07:46;;;;;;;3.55;2.25;;;;;;;14.86;57.10;100037.41;5295754;27;20423;-83
2021/08/30 03:10:13;;;;;;;5.03;1.65;;;;;;;15.14;56.13;100034.81;5295690;27;20111;-83
2021/08/30 03:12:43;;;;;;;3.55;2.00;;;;;;;15.05;56.44;100043.87;5296061;27;20124;-82
2021/08/30 03:15:18;;;;;;;6.15;2.00;;;;;;;15.17;56.37;100035.56;5295660;27;20061;-82
2021/08/30 03:17:46;;;;;;;3.80;2.03;;;;;;;14.97;57.28;100040.59;5297680;27;20102;-82
2021/08/30 03:20:23;;;;;;;6.93;1.62;;;;;;;14.80;57.72;100045.53;5295877;27;20091;-82
2021/08/30 03:22:51;;;;;;;3.67;1.77;;;;;;;14.96;57.32;100045.00;5295632;27;20160;-82
2021/08/30 03:25:22;;;;;;;3.62;1.35;;;;;;;14.95;57.06;100056.53;5297434;27;20219;-83
2021/08/30 03:27:50;;;;;;;3.15;1.65;;;;;;;15.04;56.81;100052.75;5295532;27;20053;-82
2021/08/30 03:30:18;;;;;;;5.57;2.22;;;;;;;15.04;56.80;100046.59;5295676;27;20072;-82
2021/08/30 03:32:47;;;;;;;4.72;2.30;;;;;;;15.07;56.80;100050.00;5295779;27;20081;-82
2021/08/30 03:35:15;;;;;;;3.03;1.73;;;;;;;15.05;56.97;100048.31;5295849;27;20123;-82
2021/08/30 03:37:44;;;;;;;2.83;1.75;;;;;;;14.86;57.80;100054.16;5295824;27;20073;-83
2021/08/30 03:40:13;;;;;;;4.25;1.90;;;;;;;14.83;57.87;100059.53;5297204;27;20073;-82
2021/08/30 03:42:42;;;;;;;2.50;1.70;;;;;;;14.85;57.68;100055.03;5295916;27;20088;-83
2021/08/30 03:45:11;;;;;;;2.57;1.67;;;;;;;14.85;57.66;100062.09;5295722;27;20112;-83
2021/08/30 03:47:38;;;;;;;8.02;3.08;;;;;;;14.73;57.82;100058.91;5295524;27;20069;-83
2021/08/30 03:50:06;;;;;;;6.47;2.62;;;;;;;14.64;57.88;100060.94;5295798;27;20049;-82
2021/08/30 03:52:36;;;;;;;9.90;2.50;;;;;;;14.82;57.48;100065.72;5295426;27;20542;-82
2021/08/30 03:55:03;;;;;;;7.70;2.10;;;;;;;14.72;57.73;100066.88;5296447;27;20426;-82
2021/08/30 03:57:31;;;;;;;5.57;2.22;;;;;;;14.80;57.28;100071.97;5296667;27;20081;-82
2021/08/30 03:59:59;;;;;;;3.87;1.62;;;;;;;14.96;56.61;100068.81;5298525;27;20417;-82
2021/08/30 04:02:29;;;;;;;3.10;1.98;;;;;;;14.97;56.65;100074.97;5296856;27;20111;-82
2021/08/30 04:04:57;;;;;;;5.25;2.42;;;;;;;14.87;57.17;100078.81;5296579;27;20069;-83
2021/08/30 04:07:26;;;;;;;3.90;2.03;;;;;;;14.82;57.50;100075.41;5297034;27;20528;-82
2021/08/30 04:09:54;;;;;;;5.32;2.37;;;;;;;14.82;57.52;100080.72;5296347;27;20052;-83
2021/08/30 04:12:23;;;;;;;6.30;1.73;;;;;;;14.77;57.59;100083.50;5278441;27;20084;-82
2021/08/30 04:14:51;;;;;;;5.78;1.95;;;;;;;14.63;57.93;100089.16;5296893;27;20064;-82
2021/08/30 04:17:18;;;;;;;11.10;2.97;;;;;;;14.56;58.06;100090.25;5278696;27;20106;-83
2021/08/30 04:19:45;;;;;;;9.27;3.10;;;;;;;14.76;57.32;100089.69;5278983;27;20561;-82
2021/08/30 04:22:12;;;;;;;14.68;4.00;;;;;;;14.70;57.58;100089.84;5296629;27;20076;-83
2021/08/30 04:24:42;;;;;;;23.27;3.92;;;;;;;14.48;58.19;100097.47;5278662;27;20089;-82
2021/08/30 04:27:09;;;;;;;;;;;;;;;14.60;58.03;100099.81;5279213;27;20073;-83
2021/08/30 04:29:36;;;;;;;10.02;3.00;;;;;;;14.70;57.92;100095.16;5296658;27;19991;-83
2021/08/30 04:32:04;;;;;;;12.70;3.15;;;;;;;13.98;60.40;100094.37;5297421;27;20082;-82
2021/08/30 04:34:32;;;;;;;7.37;2.97;;;;;;;14.13;59.68;100093.97;5297180;27;20084;-82
2021/08/30 04:36:59;;;;;;;5.50;2.67;;;;;;;14.31;59.03;100095.28;5298887;27;20057;-82
2021/08/30 04:39:26;;;;;;;8.35;2.55;;;;;;;14.32;58.99;100095.25;5298543;27;20061;-81
2021/08/30 04:41:53;;;;;;;9.10;2.87;;;;;;;14.84;56.97;100092.13;5297371;27;20068;-82
2021/08/30 04:44:21;;;;;;;5.55;2.20;;;;;;;14.88;56.87;100099.06;5279217;27;20083;-82
2021/08/30 04:46:48;;;;;;;10.20;3.00;;;;;;;14.66;57.66;100098.78;5278477;27;20442;-82
2021/08/30 04:49:15;;;;;;;7.22;2.65;;;;;;;14.43;58.88;100099.38;5296662;27;20122;-83
2021/08/30 04:51:42;;;;;;;13.10;3.55;;;;;;;14.45;59.11;100100.22;5297750;27;20079;-82
2021/08/30 04:54:09;;;;;;;8.73;3.20;;;;;;;14.05;60.38;100098.56;5297512;27;20117;-82
2021/08/30 04:56:36;;;;;;;9.98;2.53;;;;;;;13.93;60.43;100096.25;5298375;27;20068;-81
2021/08/30 04:59:03;;;;;;;5.45;2.30;;;;;;;14.32;59.70;100100.53;5278365;27;20399;-83
2021/08/30 05:01:30;;;;;;;7.75;2.85;;;;;;;14.71;58.14;100099.53;5279033;27;20060;-81
2021/08/30 05:03:58;;;;;;;9.48;3.20;;;;;;;15.11;56.91;100106.34;5297522;27;20061;-81
2021/08/30 05:06:25;;;;;;;6.87;3.58;;;;;;;15.73;55.60;100108.03;5297314;27;20077;-81
2021/08/30 05:08:53;;;;;;;5.65;2.58;;;;;;;16.05;54.44;100110.50;5297299;27;20053;-81
2021/08/30 05:11:21;;;;;;;6.28;2.37;;;;;;;16.65;53.06;100096.97;5294814;27;20108;-81
2021/08/30 05:13:52;;;;;;;18.35;3.97;;;;;;;17.18;51.44;100096.88;5297323;27;20077;-81
2021/08/30 05:16:19;;;;;;;11.93;4.90;;;;;;;17.57;50.38;100096.25;5298649;27;20049;-81
2021/08/30 05:18:46;;;;;;;9.88;5.15;;;;;;;18.31;49.42;100092.31;5298319;27;20127;-82
2021/08/30 05:21:13;;;;;;;16.52;4.55;;;;;;;19.86;46.22;100093.31;5299866;27;20053;-81
